Time;durP1;ratioP1;P1;durP2;ratioP2;P2;SDS_P1;SDS_P2;PMS_P1;PMS_P2;Temp;Humidity;BMP_temperature;BMP_pressure;BME280_temperature;BME280_humidity;BME280_pressure;Samples;Min_cycle;Max_cycle;Signal;HPM_P1;HPM_P2
2023/03/22 00:02:08;;;;;;;28.17;7.05;;;;;;;;;;5086940;28;20048;-69
2023/03/22 00:04:35;;;;;;;23.88;6.53;;;;;;;;;;5083779;28;20042;-70
2023/03/22 00:07:04;;;;;;;25.92;6.13;;;;;;;;;;5083870;28;20491;-69
2023/03/22 00:09:31;;;;;;;20.63;6.57;;;;;;;;;;5084206;28;20044;-69
2023/03/22 00:11:58;;;;;;;26.63;6.53;;;;;;;;;;5085058;28;20048;-69
2023/03/22 00:14:26;;;;;;;27.50;6.70;;;;;;;;;;5086374;28;20051;-69
2023/03/22 00:16:53;;;;;;;25.13;6.47;;;;;;;;;;5086742;28;20048;-70
2023/03/22 00:19:20;;;;;;;27.85;6.03;;;;;;;;;;5087286;28;20062;-70
2023/03/22 00:21:48;;;;;;;19.25;5.43;;;;;;;;;;5083671;28;20037;-69
2023/03/22 00:24:16;;;;;;;22.88;5.85;;;;;;;;;;5084334;28;20047;-69
2023/03/22 00:26:46;;;;;;;22.92;5.55;;;;;;;;;;5082311;28;20052;-69
2023/03/22 00:29:13;;;;;;;26.23;5.97;;;;;;;;;;5085295;28;20087;-69
2023/03/22 00:31:41;;;;;;;25.48;5.85;;;;;;;;;;5087045;28;20067;-69
2023/03/22 00:34:08;;;;;;;22.52;6.25;;;;;;;;;;5083102;28;20063;-69
2023/03/22 00:36:37;;;;;;;23.50;5.88;;;;;;;;;;5083878;28;20046;-69
2023/03/22 00:39:04;;;;;;;27.15;5.18;;;;;;;;;;5081149;28;20547;-69
2023/03/22 00:41:33;;;;;;;22.40;5.20;;;;;;;;;;5080586;28;20070;-69
2023/03/22 00:44:00;;;;;;;20.08;5.00;;;;;;;;;;5076363;28;20048;-69
2023/03/22 00:46:27;;;;;;;20.75;4.80;;;;;;;;;;5079256;28;20062;-69
2023/03/22 00:48:54;;;;;;;23.02;4.93;;;;;;;;;;5083906;28;20051;-69
2023/03/22 00:51:22;;;;;;;21.80;4.13;;;;;;;;;;5087959;28;20071;-69
2023/03/22 00:53:49;;;;;;;20.63;4.72;;;;;;;;;;5065776;28;20062;-70
2023/03/22 00:56:17;;;;;;;22.77;4.20;;;;;;;;;;5067606;28;20064;-69
2023/03/22 00:58:46;;;;;;;15.23;3.63;;;;;;;;;;5084751;28;20040;-69
2023/03/22 01:01:13;;;;;;;20.02;3.78;;;;;;;;;;5084503;28;20567;-69
2023/03/22 01:03:41;;;;;;;22.38;3.78;;;;;;;;;;5081594;28;20454;-69
2023/03/22 01:06:08;;;;;;;17.23;3.33;;;;;;;;;;5064758;28;20566;-70
2023/03/22 01:08:37;;;;;;;20.02;2.95;;;;;;;;;;5075773;28;20047;-69
2023/03/22 01:11:06;;;;;;;24.95;4.20;;;;;;;;;;5085951;28;20109;-69
2023/03/22 01:13:33;;;;;;;16.38;3.03;;;;;;;;;;5081127;28;20078;-69
2023/03/22 01:16:01;;;;;;;14.45;2.70;;;;;;;;;;5078985;28;20498;-69
2023/03/22 01:18:29;;;;;;;15.60;2.47;;;;;;;;;;5075361;28;20397;-69
2023/03/22 01:20:56;;;;;;;12.70;2.15;;;;;;;;;;5084471;28;20055;-69
2023/03/22 01:23:23;;;;;;;16.88;2.40;;;;;;;;;;5085873;28;20048;-69
2023/03/22 01:25:50;;;;;;;18.58;2.05;;;;;;;;;;5081617;28;20475;-69
2023/03/22 01:28:18;;;;;;;18.83;3.85;;;;;;;;;;5083256;28;20049;-69
2023/03/22 01:30:45;;;;;;;14.27;2.33;;;;;;;;;;5081142;28;20047;-69
2023/03/22 01:33:14;;;;;;;18.48;2.80;;;;;;;;;;5079978;28;20502;-69
2023/03/22 01:35:41;;;;;;;9.32;1.60;;;;;;;;;;5082988;28;20098;-69
2023/03/22 01:38:08;;;;;;;17.50;1.80;;;;;;;;;;5064707;28;20048;-70
2023/03/22 01:40:36;;;;;;;10.13;1.48;;;;;;;;;;5066353;28;20052;-69
2023/03/22 01:43:03;;;;;;;21.70;2.10;;;;;;;;;;5084957;28;20044;-69
2023/03/22 01:45:35;;;;;;;17.05;2.00;;;;;;;;;;5070438;28;20062;-69
2023/03/22 01:48:05;;;;;;;13.50;1.48;;;;;;;;;;5084410;28;20056;-70
2023/03/22 01:50:33;;;;;;;15.90;2.58;;;;;;;;;;5086101;28;20052;-70
2023/03/22 01:53:04;;;;;;;16.02;1.60;;;;;;;;;;5089813;28;20044;-69
2023/03/22 01:55:32;;;;;;;12.07;1.98;;;;;;;;;;5082616;28;20483;-69
2023/03/22 01:58:00;;;;;;;10.60;1.60;;;;;;;;;;5080249;28;20076;-69
2023/03/22 02:00:27;;;;;;;15.25;1.85;;;;;;;;;;5086309;28;20067;-69
2023/03/22 02:02:55;;;;;;;14.05;1.90;;;;;;;;;;5085450;28;20468;-69
2023/03/22 02:05:23;;;;;;;14.63;1.83;;;;;;;;;;5083284;28;20071;-69
2023/03/22 02:07:52;;;;;;;16.52;1.73;;;;;;;;;;5086848;28;20050;-70
2023/03/22 02:10:21;;;;;;;10.32;2.00;;;;;;;;;;5087534;28;20525;-70
2023/03/22 02:12:55;;;;;;;15.20;1.80;;;;;;;;;;5068292;28;20040;-70
2023/03/22 02:15:24;;;;;;;10.20;1.73;;;;;;;;;;5081557;28;20083;-68
2023/03/22 02:18:00;;;;;;;9.00;1.40;;;;;;;;;;5086392;28;20048;-67
2023/03/22 02:20:40;;;;;;;14.20;1.67;;;;;;;;;;5088586;28;20795;-67
2023/03/22 02:23:19;;;;;;;12.18;2.17;;;;;;;;;;5090781;28;20044;-67
2023/03/22 02:26:00;;;;;;;14.07;2.10;;;;;;;;;;5084145;28;20491;-68
2023/03/22 02:28:34;;;;;;;11.50;2.08;;;;;;;;;;5088501;28;20040;-67
2023/03/22 02:31:19;;;;;;;14.82;2.25;;;;;;;;;;5088115;28;20426;-67
2023/03/22 02:34:04;;;;;;;12.35;1.80;;;;;;;;;;5076495;28;20051;-68
2023/03/22 02:36:38;;;;;;;14.57;2.25;;;;;;;;;;5085233;28;20052;-67
2023/03/22 02:39:14;;;;;;;11.88;1.60;;;;;;;;;;5086594;28;20475;-67
2023/03/22 02:41:46;;;;;;;18.35;1.98;;;;;;;;;;5087896;28;20067;-68
2023/03/22 02:44:18;;;;;;;14.45;2.55;;;;;;;;;;5089053;28;20055;-67
2023/03/22 02:46:48;;;;;;;9.23;1.95;;;;;;;;;;5088604;28;20048;-67
2023/03/22 02:49:19;;;;;;;8.45;2.08;;;;;;;;;;5070485;28;20062;-67
2023/03/22 02:51:48;;;;;;;15.52;2.20;;;;;;;;;;5089216;28;20507;-68
2023/03/22 02:54:21;;;;;;;15.82;2.22;;;;;;;;;;5083960;28;20474;-67
2023/03/22 02:56:50;;;;;;;12.93;2.15;;;;;;;;;;5089352;28;20056;-68
2023/03/22 02:59:18;;;;;;;16.10;2.30;;;;;;;;;;5085357;28;20052;-68
2023/03/22 03:01:47;;;;;;;10.23;1.88;;;;;;;;;;5082664;28;20518;-68
2023/03/22 03:04:17;;;;;;;16.10;2.03;;;;;;;;;;5085404;28;20054;-69
2023/03/22 03:06:46;;;;;;;16.27;2.13;;;;;;;;;;5086664;28;20380;-68
2023/03/22 03:09:16;;;;;;;14.35;2.35;;;;;;;;;;5079464;28;20048;-68
2023/03/22 03:11:46;;;;;;;16.80;2.40;;;;;;;;;;5071149;28;20101;-68
2023/03/22 03:14:24;;;;;;;19.33;2.17;;;;;;;;;;5083186;28;20113;-68
2023/03/22 03:16:58;;;;;;;15.38;2.30;;;;;;;;;;5084724;28;20048;-68
2023/03/22 03:19:28;;;;;;;11.25;1.98;;;;;;;;;;5086759;28;20487;-68
2023/03/22 03:21:59;;;;;;;13.25;2.10;;;;;;;;;;5081366;28;20505;-69
2023/03/22 03:24:29;;;;;;;19.20;2.53;;;;;;;;;;5087768;28;20048;-68
2023/03/22 03:27:01;;;;;;;15.93;3.00;;;;;;;;;;5067781;28;20084;-68
2023/03/22 03:29:32;;;;;;;17.73;2.40;;;;;;;;;;5088649;28;20052;-69
2023/03/22 03:32:06;;;;;;;11.80;2.22;;;;;;;;;;5068746;28;20048;-69
2023/03/22 03:34:35;;;;;;;12.55;2.30;;;;;;;;;;5089002;28;20130;-68
2023/03/22 03:37:07;;;;;;;13.13;2.30;;;;;;;;;;5084535;28;20471;-68
2023/03/22 03:39:36;;;;;;;17.58;2.53;;;;;;;;;;5087558;28;20075;-68
2023/03/22 03:42:06;;;;;;;17.33;2.40;;;;;;;;;;5081616;28;20049;-69
2023/03/22 03:44:36;;;;;;;8.85;2.13;;;;;;;;;;5086960;28;20443;-68
2023/03/22 03:47:04;;;;;;;12.80;2.42;;;;;;;;;;5083882;28;20451;-68
2023/03/22 03:49:31;;;;;;;13.57;2.65;;;;;;;;;;5084403;28;20056;-68
2023/03/22 03:52:00;;;;;;;20.67;2.38;;;;;;;;;;5084472;28;20052;-69
2023/03/22 03:54:27;;;;;;;18.30;2.20;;;;;;;;;;5081945;28;20360;-68
2023/03/22 03:56:54;;;;;;;17.95;2.25;;;;;;;;;;5087805;28;20052;-68
2023/03/22 03:59:23;;;;;;;11.70;2.22;;;;;;;;;;5084762;28;20049;-67
2023/03/22 04:01:51;;;;;;;18.67;2.40;;;;;;;;;;5088275;28;20403;-68
2023/03/22 04:04:24;;;;;;;10.20;2.17;;;;;;;;;;5084283;28;20484;-68
2023/03/22 04:06:52;;;;;;;20.83;2.85;;;;;;;;;;5087337;28;20052;-68
2023/03/22 04:09:20;;;;;;;18.30;2.92;;;;;;;;;;5084378;28;20051;-68
2023/03/22 04:11:47;;;;;;;15.68;2.13;;;;;;;;;;5089575;28;20539;-68
2023/03/22 04:14:14;;;;;;;13.23;2.78;;;;;;;;;;5082151;28;20048;-68
2023/03/22 04:16:43;;;;;;;12.45;2.30;;;;;;;;;;5087624;28;20417;-68
2023/03/22 04:19:10;;;;;;;13.32;2.17;;;;;;;;;;5086165;28;20055;-69
2023/03/22 04:21:37;;;;;;;10.30;2.08;;;;;;;;;;5088581;28;20055;-68
2023/03/22 04:24:05;;;;;;;10.35;2.25;;;;;;;;;;5081740;28;20165;-68
2023/03/22 04:26:32;;;;;;;17.23;2.13;;;;;;;;;;5080264;28;20052;-68
2023/03/22 04:29:01;;;;;;;16.58;2.53;;;;;;;;;;5082644;28;20053;-68
2023/03/22 04:31:29;;;;;;;14.60;2.35;;;;;;;;;;5078914;28;20098;-68
2023/03/22 04:33:59;;;;;;;16.25;2.47;;;;;;;;;;5081377;28;20426;-68
2023/03/22 04:36:29;;;;;;;13.38;2.30;;;;;;;;;;5082160;28;20090;-68
2023/03/22 04:38:57;;;;;;;13.82;2.35;;;;;;;;;;5082713;28;20040;-69
2023/03/22 04:41:24;;;;;;;14.80;2.45;;;;;;;;;;5085409;28;20047;-69
2023/03/22 04:43:52;;;;;;;13.45;2.65;;;;;;;;;;5084719;28;20147;-68
2023/03/22 04:46:20;;;;;;;10.43;2.90;;;;;;;;;;5082665;28;20052;-68
2023/03/22 04:48:47;;;;;;;16.02;3.17;;;;;;;;;;5078547;28;20048;-69
2023/03/22 04:51:15;;;;;;;16.75;3.47;;;;;;;;;;5084814;28;20040;-69
2023/03/22 04:53:43;;;;;;;20.80;3.97;;;;;;;;;;5086688;28;20048;-68
2023/03/22 04:56:11;;;;;;;13.02;3.67;;;;;;;;;;5069366;28;20051;-68
2023/03/22 04:58:40;;;;;;;11.55;3.58;;;;;;;;;;5062757;28;20376;-68
2023/03/22 05:01:08;;;;;;;13.50;3.88;;;;;;;;;;5082332;28;20059;-69
2023/03/22 05:03:35;;;;;;;13.05;3.63;;;;;;;;;;5078672;28;20460;-69
2023/03/22 05:06:03;;;;;;;18.52;4.72;;;;;;;;;;5084088;28;20140;-68
2023/03/22 05:08:31;;;;;;;13.02;4.53;;;;;;;;;;5086432;28;20048;-68
2023/03/22 05:11:00;;;;;;;15.68;4.40;;;;;;;;;;5082878;28;20040;-68
2023/03/22 05:13:28;;;;;;;15.05;5.13;;;;;;;;;;5082508;28;20052;-69
2023/03/22 05:15:55;;;;;;;16.33;5.15;;;;;;;;;;5083779;28;20572;-68
2023/03/22 05:18:25;;;;;;;13.45;5.78;;;;;;;;;;5080884;28;20055;-68
2023/03/22 05:20:52;;;;;;;16.52;5.78;;;;;;;;;;5084011;28;20044;-68
2023/03/22 05:23:20;;;;;;;19.17;5.82;;;;;;;;;;5087852;28;20415;-69
2023/03/22 05:25:49;;;;;;;17.13;5.32;;;;;;;;;;5084181;28;20044;-68
2023/03/22 05:28:18;;;;;;;18.58;6.63;;;;;;;;;;5086933;28;20419;-68
2023/03/22 05:30:45;;;;;;;15.95;6.13;;;;;;;;;;5087892;28;20051;-68
2023/03/22 05:33:13;;;;;;;14.90;5.78;;;;;;;;;;5083191;28;20423;-69
2023/03/22 05:35:41;;;;;;;16.40;5.93;;;;;;;;;;5087161;28;20127;-68
2023/03/22 05:38:09;;;;;;;14.00;6.07;;;;;;;;;;5079387;28;20057;-68
2023/03/22 05:40:36;;;;;;;18.35;6.13;;;;;;;;;;5087510;28;20121;-69
2023/03/22 05:43:04;;;;;;;12.80;5.55;;;;;;;;;;5083898;28;20434;-68
2023/03/22 05:45:32;;;;;;;23.60;6.78;;;;;;;;;;5088360;28;20931;-69
2023/03/22 05:47:59;;;;;;;20.05;6.95;;;;;;;;;;5067773;28;20052;-69
2023/03/22 05:50:26;;;;;;;20.23;7.30;;;;;;;;;;5087460;28;20085;-69
2023/03/22 05:52:55;;;;;;;19.38;7.20;;;;;;;;;;5068840;28;20403;-69
2023/03/22 05:55:22;;;;;;;22.13;7.75;;;;;;;;;;5084839;28;20052;-68
2023/03/22 05:57:51;;;;;;;21.95;8.02;;;;;;;;;;5084156;28;20044;-69
2023/03/22 06:00:20;;;;;;;23.02;8.20;;;;;;;;;;5081921;28;20515;-69
2023/03/22 06:02:48;;;;;;;22.60;8.27;;;;;;;;;;5083694;28;20102;-69
2023/03/22 06:05:17;;;;;;;20.27;8.30;;;;;;;;;;5082454;28;20048;-69
2023/03/22 06:07:44;;;;;;;25.02;9.02;;;;;;;;;;5080412;28;20048;-70
2023/03/22 06:10:13;;;;;;;24.92;8.70;;;;;;;;;;5084438;28;20052;-69
2023/03/22 06:12:40;;;;;;;23.33;9.57;;;;;;;;;;5081374;28;20048;-68
2023/03/22 06:15:08;;;;;;;23.42;8.50;;;;;;;;;;5063960;28;20427;-68
2023/03/22 06:17:37;;;;;;;22.98;8.40;;;;;;;;;;5083181;28;20048;-69
2023/03/22 06:20:08;;;;;;;24.73;10.10;;;;;;;;;;5076579;28;20051;-69
2023/03/22 06:22:36;;;;;;;19.83;8.25;;;;;;;;;;5080650;28;20050;-68
2023/03/22 06:25:03;;;;;;;23.40;8.52;;;;;;;;;;5082121;28;20085;-68
2023/03/22 06:27:31;;;;;;;25.30;8.05;;;;;;;;;;5080825;28;20055;-69
2023/03/22 06:29:58;;;;;;;28.38;8.43;;;;;;;;;;5084652;28;20066;-68
2023/03/22 06:32:25;;;;;;;27.45;8.68;;;;;;;;;;5065617;28;20502;-68
2023/03/22 06:34:54;;;;;;;22.02;8.05;;;;;;;;;;5084376;28;20056;-68
2023/03/22 06:37:22;;;;;;;21.40;8.43;;;;;;;;;;5089161;28;20074;-68
2023/03/22 06:39:50;;;;;;;18.67;8.73;;;;;;;;;;5086110;28;20059;-68
2023/03/22 06:42:17;;;;;;;19.23;8.57;;;;;;;;;;5081548;28;20132;-68
2023/03/22 06:44:44;;;;;;;23.30;9.40;;;;;;;;;;5087034;28;20036;-68
2023/03/22 06:47:11;;;;;;;22.10;8.63;;;;;;;;;;5067935;28;20161;-68
2023/03/22 06:49:39;;;;;;;18.63;9.38;;;;;;;;;;5081409;28;20051;-68
2023/03/22 06:52:07;;;;;;;22.90;9.00;;;;;;;;;;5087133;28;20487;-68
2023/03/22 06:54:35;;;;;;;22.63;9.60;;;;;;;;;;5087079;28;20042;-67
2023/03/22 06:57:02;;;;;;;23.58;8.57;;;;;;;;;;5082464;28;20051;-68
2023/03/22 06:59:29;;;;;;;19.27;8.60;;;;;;;;;;5064207;28;20143;-68
2023/03/22 07:01:57;;;;;;;24.15;9.38;;;;;;;;;;5083736;28;20054;-68
2023/03/22 07:04:24;;;;;;;22.27;8.90;;;;;;;;;;5089152;28;20669;-68
2023/03/22 07:06:51;;;;;;;21.95;8.15;;;;;;;;;;5086228;28;20055;-68
2023/03/22 07:09:22;;;;;;;20.60;8.57;;;;;;;;;;5082866;28;20045;-69
2023/03/22 07:11:50;;;;;;;20.85;7.88;;;;;;;;;;5087104;28;20110;-68
2023/03/22 07:14:17;;;;;;;19.40;8.35;;;;;;;;;;5082578;28;20127;-68
2023/03/22 07:16:44;;;;;;;19.60;8.00;;;;;;;;;;5090574;28;20050;-67
2023/03/22 07:19:12;;;;;;;19.02;7.65;;;;;;;;;;5084822;28;20052;-68
2023/03/22 07:21:39;;;;;;;22.90;7.55;;;;;;;;;;5084235;28;20115;-68
2023/03/22 07:24:08;;;;;;;20.35;7.68;;;;;;;;;;5083836;28;20044;-68
2023/03/22 07:26:38;;;;;;;21.75;7.57;;;;;;;;;;5089022;28;20071;-67
2023/03/22 07:29:05;;;;;;;13.75;6.80;;;;;;;;;;5086680;28;20052;-68
2023/03/22 07:31:35;;;;;;;16.52;5.85;;;;;;;;;;5087630;28;20503;-68
2023/03/22 07:34:02;;;;;;;18.17;6.97;;;;;;;;;;5086351;28;20052;-68
2023/03/22 07:36:29;;;;;;;21.65;6.53;;;;;;;;;;5068764;28;20495;-67
2023/03/22 07:38:57;;;;;;;18.73;6.10;;;;;;;;;;5066784;28;20139;-68
2023/03/22 07:41:25;;;;;;;13.82;5.78;;;;;;;;;;5078070;28;20629;-67
2023/03/22 07:43:54;;;;;;;16.70;5.72;;;;;;;;;;5085480;28;20105;-68
2023/03/22 07:46:21;;;;;;;15.15;5.97;;;;;;;;;;5085024;28;20056;-68
2023/03/22 07:48:49;;;;;;;14.48;5.28;;;;;;;;;;5089623;28;20055;-68
2023/03/22 07:51:18;;;;;;;15.65;5.78;;;;;;;;;;5066795;28;20056;-67
2023/03/22 07:53:46;;;;;;;20.83;6.47;;;;;;;;;;5087067;28;20777;-68
2023/03/22 07:56:14;;;;;;;21.67;6.03;;;;;;;;;;5086335;28;20054;-68
2023/03/22 07:58:42;;;;;;;15.57;5.30;;;;;;;;;;5065197;28;20056;-68
2023/03/22 08:01:10;;;;;;;16.13;5.53;;;;;;;;;;5083603;28;20051;-68
2023/03/22 08:03:38;;;;;;;14.25;5.25;;;;;;;;;;5084672;28;20056;-68
2023/03/22 08:06:07;;;;;;;14.90;5.35;;;;;;;;;;5083137;28;20063;-68
2023/03/22 08:08:35;;;;;;;16.48;5.40;;;;;;;;;;5087539;28;20475;-68
2023/03/22 08:11:02;;;;;;;11.75;4.70;;;;;;;;;;5086160;28;20055;-68
2023/03/22 08:13:30;;;;;;;13.60;4.55;;;;;;;;;;5086787;28;20044;-68
2023/03/22 08:15:57;;;;;;;15.18;4.55;;;;;;;;;;5085015;28;20048;-68
2023/03/22 08:18:26;;;;;;;14.75;4.32;;;;;;;;;;5084615;28;20410;-68
2023/03/22 08:20:54;;;;;;;20.08;5.05;;;;;;;;;;5082744;28;20043;-68
2023/03/22 08:23:21;;;;;;;12.60;3.85;;;;;;;;;;5080879;28;20048;-68
2023/03/22 08:25:48;;;;;;;17.17;4.35;;;;;;;;;;5088243;28;20063;-68
2023/03/22 08:28:16;;;;;;;13.52;4.13;;;;;;;;;;5081865;28;20449;-68
2023/03/22 08:30:44;;;;;;;16.30;4.03;;;;;;;;;;5088197;28;20048;-68
2023/03/22 08:33:11;;;;;;;14.07;3.78;;;;;;;;;;5079987;28;20048;-68
2023/03/22 08:35:40;;;;;;;15.38;3.83;;;;;;;;;;5083597;28;20155;-68
2023/03/22 08:38:07;;;;;;;17.42;3.70;;;;;;;;;;5078401;28;20056;-68
2023/03/22 08:40:34;;;;;;;19.88;4.75;;;;;;;;;;5085500;28;20055;-68
2023/03/22 08:43:02;;;;;;;13.70;4.00;;;;;;;;;;5082570;28;20075;-68
2023/03/22 08:45:29;;;;;;;18.63;4.15;;;;;;;;;;5082358;28;20077;-67
2023/03/22 08:47:58;;;;;;;19.95;4.35;;;;;;;;;;5083047;28;20394;-68
2023/03/22 08:50:26;;;;;;;17.80;4.65;;;;;;;;;;5085559;28;20059;-68
2023/03/22 08:52:55;;;;;;;16.15;5.18;;;;;;;;;;5084845;28;20056;-67
2023/03/22 08:55:23;;;;;;;13.95;4.43;;;;;;;;;;5084624;28;20050;-68
2023/03/22 08:57:51;;;;;;;16.52;3.83;;;;;;;;;;5082924;28;20121;-68
2023/03/22 09:00:19;;;;;;;13.95;4.10;;;;;;;;;;5085814;28;20060;-68
2023/03/22 09:02:46;;;;;;;16.23;3.88;;;;;;;;;;5086560;28;20159;-68
2023/03/22 09:05:14;;;;;;;15.90;4.15;;;;;;;;;;5087167;28;20058;-68
2023/03/22 09:07:41;;;;;;;21.17;4.63;;;;;;;;;;5087086;28;20053;-68
2023/03/22 09:10:11;;;;;;;23.90;4.25;;;;;;;;;;5085012;28;20071;-68
2023/03/22 09:12:38;;;;;;;18.60;4.50;;;;;;;;;;5084298;28;20351;-69
2023/03/22 09:15:06;;;;;;;16.67;4.32;;;;;;;;;;5081611;28;20560;-69
2023/03/22 09:17:33;;;;;;;17.42;4.97;;;;;;;;;;5082095;28;20043;-69
2023/03/22 09:20:01;;;;;;;17.67;5.28;;;;;;;;;;5083865;28;20052;-69
2023/03/22 09:22:28;;;;;;;25.25;5.15;;;;;;;;;;5083064;28;20044;-69
2023/03/22 09:24:55;;;;;;;21.85;6.13;;;;;;;;;;5075080;28;20044;-69
2023/03/22 09:27:24;;;;;;;20.33;5.53;;;;;;;;;;5084338;28;20056;-69
2023/03/22 09:29:52;;;;;;;21.05;6.45;;;;;;;;;;5078744;28;20696;-69
2023/03/22 09:32:19;;;;;;;23.02;6.50;;;;;;;;;;5081445;28;20495;-69
2023/03/22 09:34:46;;;;;;;25.73;6.63;;;;;;;;;;5081180;28;20048;-69
2023/03/22 09:37:14;;;;;;;23.48;7.15;;;;;;;;;;5085302;28;20205;-69
2023/03/22 09:39:43;;;;;;;21.52;6.25;;;;;;;;;;5083439;28;20841;-69
2023/03/22 09:42:18;;;;;;;27.98;7.78;;;;;;;;;;5084929;28;20048;-69
2023/03/22 09:44:47;;;;;;;27.65;6.80;;;;;;;;;;5083898;28;20037;-69
2023/03/22 09:47:16;;;;;;;24.58;7.15;;;;;;;;;;5086465;28;20051;-69
2023/03/22 09:49:46;;;;;;;24.90;7.47;;;;;;;;;;5078841;28;20040;-69
2023/03/22 09:52:14;;;;;;;22.38;7.20;;;;;;;;;;5080464;28;20052;-70
2023/03/22 09:54:43;;;;;;;21.02;7.22;;;;;;;;;;5080255;28;20476;-69
2023/03/22 09:57:14;;;;;;;20.35;7.28;;;;;;;;;;5080873;28;20044;-70
2023/03/22 09:59:45;;;;;;;22.60;6.85;;;;;;;;;;5083760;28;20052;-69
2023/03/22 10:02:30;;;;;;;22.08;8.10;;;;;;;;;;5079533;28;20044;-69
2023/03/22 10:05:04;;;;;;;24.85;6.78;;;;;;;;;;5074024;28;20056;-69
2023/03/22 10:07:31;;;;;;;;;;;;;;;;;;5089227;28;20048;-70
2023/03/22 10:10:04;;;;;;;19.65;6.63;;;;;;;;;;5086601;28;20383;-69
2023/03/22 10:12:31;;;;;;;;;;;;;;;;;;5086113;28;20051;-69
2023/03/22 10:15:02;;;;;;;27.85;7.25;;;;;;;;;;5088009;28;20395;-69
2023/03/22 10:17:30;;;;;;;25.65;7.03;;;;;;;;;;5088822;28;20048;-69
2023/03/22 10:19:59;;;;;;;19.10;7.25;;;;;;;;;;5080016;28;20499;-69
2023/03/22 10:22:29;;;;;;;24.63;7.53;;;;;;;;;;5064818;28;20090;-69
2023/03/22 10:24:57;;;;;;;28.30;7.70;;;;;;;;;;5085431;28;20048;-69
2023/03/22 10:27:26;;;;;;;28.70;6.95;;;;;;;;;;5084008;28;20052;-69
2023/03/22 10:29:56;;;;;;;16.60;6.70;;;;;;;;;;5084450;28;20130;-68
2023/03/22 10:32:26;;;;;;;24.45;7.03;;;;;;;;;;5088182;28;20051;-68
2023/03/22 10:35:01;;;;;;;19.23;6.72;;;;;;;;;;5084681;28;20119;-70
2023/03/22 10:37:32;;;;;;;20.38;6.78;;;;;;;;;;5069988;28;20049;-69
2023/03/22 10:40:00;;;;;;;25.15;6.70;;;;;;;;;;5087563;28;20052;-69
2023/03/22 10:42:29;;;;;;;19.30;7.00;;;;;;;;;;5080325;28;20087;-69
2023/03/22 10:44:58;;;;;;;24.33;8.00;;;;;;;;;;5088467;28;20123;-68
2023/03/22 10:47:30;;;;;;;19.30;7.03;;;;;;;;;;5081376;28;20057;-69
2023/03/22 10:49:57;;;;;;;18.67;6.47;;;;;;;;;;5083374;28;20483;-69
2023/03/22 10:52:32;;;;;;;24.35;6.93;;;;;;;;;;5085823;28;20410;-69
2023/03/22 10:55:01;;;;;;;19.20;6.55;;;;;;;;;;5087548;28;20127;-69
2023/03/22 10:57:28;;;;;;;23.13;6.75;;;;;;;;;;5081302;28;20419;-68
2023/03/22 10:59:57;;;;;;;28.08;7.47;;;;;;;;;;5089614;28;20040;-68
2023/03/22 11:02:26;;;;;;;25.67;7.00;;;;;;;;;;5080858;28;20059;-68
2023/03/22 11:04:55;;;;;;;19.05;6.78;;;;;;;;;;5088673;28;20093;-68
2023/03/22 11:07:30;;;;;;;21.30;7.47;;;;;;;;;;5084310;28;20075;-68
2023/03/22 11:10:14;;;;;;;20.23;7.10;;;;;;;;;;5079188;28;20453;-68
2023/03/22 11:12:43;;;;;;;19.05;6.20;;;;;;;;;;5083224;28;20403;-68
2023/03/22 11:15:19;;;;;;;25.25;7.53;;;;;;;;;;5086654;28;20044;-68
2023/03/22 11:17:47;;;;;;;20.80;6.90;;;;;;;;;;5064338;28;20052;-68
2023/03/22 11:20:16;;;;;;;20.63;6.40;;;;;;;;;;5081930;28;20754;-68
2023/03/22 11:22:44;;;;;;;23.50;7.25;;;;;;;;;;5081747;28;20044;-68
2023/03/22 11:25:16;;;;;;;24.25;7.28;;;;;;;;;;5085227;28;20048;-68
2023/03/22 11:27:50;;;;;;;14.52;5.45;;;;;;;;;;5087628;28;20045;-68
2023/03/22 11:30:21;;;;;;;23.15;7.32;;;;;;;;;;5081973;28;20106;-65
2023/03/22 11:32:49;;;;;;;22.00;6.95;;;;;;;;;;5088575;28;20058;-65
2023/03/22 11:35:18;;;;;;;18.70;7.32;;;;;;;;;;5087170;28;20040;-65
2023/03/22 11:37:46;;;;;;;23.02;8.50;;;;;;;;;;5085538;28;20552;-65
2023/03/22 11:40:16;;;;;;;19.60;7.00;;;;;;;;;;5085879;28;20059;-65
2023/03/22 11:42:44;;;;;;;17.02;6.30;;;;;;;;;;5084745;28;20043;-65
2023/03/22 11:45:15;;;;;;;15.48;6.63;;;;;;;;;;5084150;28;20048;-65
2023/03/22 11:47:42;;;;;;;17.25;7.05;;;;;;;;;;5086831;28;20040;-65
2023/03/22 11:50:21;;;;;;;18.50;6.13;;;;;;;;;;5064985;28;20047;-65
2023/03/22 11:52:49;;;;;;;20.63;7.43;;;;;;;;;;5085835;28;20052;-65
2023/03/22 11:55:18;;;;;;;13.68;6.65;;;;;;;;;;5085765;28;20055;-65
2023/03/22 11:57:45;;;;;;;15.23;7.53;;;;;;;;;;5087166;28;20048;-65
2023/03/22 12:00:16;;;;;;;19.40;7.80;;;;;;;;;;5083506;28;20056;-65
2023/03/22 12:02:45;;;;;;;22.00;7.45;;;;;;;;;;5061386;28;20049;-66
2023/03/22 12:05:16;;;;;;;20.48;7.55;;;;;;;;;;5083924;28;20052;-66
2023/03/22 12:07:43;;;;;;;16.77;7.57;;;;;;;;;;5083728;28;20558;-66
2023/03/22 12:10:13;;;;;;;19.00;7.90;;;;;;;;;;5082240;28;20071;-66
2023/03/22 12:12:45;;;;;;;19.48;8.43;;;;;;;;;;5081171;28;20676;-65
2023/03/22 12:15:16;;;;;;;19.92;8.02;;;;;;;;;;5081862;28;20051;-66
2023/03/22 12:17:45;;;;;;;19.85;8.27;;;;;;;;;;5078432;28;20097;-66
2023/03/22 12:20:17;;;;;;;20.10;9.25;;;;;;;;;;5084715;28;20063;-65
2023/03/22 12:22:49;;;;;;;24.73;10.80;;;;;;;;;;5080332;28;20054;-66
2023/03/22 12:25:18;;;;;;;25.60;11.23;;;;;;;;;;5085340;28;20052;-66
2023/03/22 12:27:48;;;;;;;26.60;10.52;;;;;;;;;;5059770;28;20150;-67
2023/03/22 12:30:18;;;;;;;23.45;10.48;;;;;;;;;;5085818;28;20050;-67
2023/03/22 12:32:47;;;;;;;21.95;10.23;;;;;;;;;;5082329;28;20067;-67
2023/03/22 12:35:16;;;;;;;21.35;10.32;;;;;;;;;;5077417;28;20049;-67
2023/03/22 12:37:45;;;;;;;22.27;9.95;;;;;;;;;;5083391;28;20376;-66
2023/03/22 12:40:20;;;;;;;31.63;12.57;;;;;;;;;;5085870;28;20509;-66
2023/03/22 12:42:52;;;;;;;25.10;9.95;;;;;;;;;;5082515;28;20514;-66
2023/03/22 12:45:21;;;;;;;29.98;9.95;;;;;;;;;;5062015;28;20392;-66
2023/03/22 12:47:50;;;;;;;21.02;9.70;;;;;;;;;;5080313;28;20040;-66
2023/03/22 12:50:19;;;;;;;20.35;8.95;;;;;;;;;;5085321;28;20043;-66
2023/03/22 12:52:47;;;;;;;16.92;8.15;;;;;;;;;;5064467;28;20250;-66
2023/03/22 12:55:20;;;;;;;17.38;8.57;;;;;;;;;;5081092;28;20054;-66
2023/03/22 12:57:51;;;;;;;25.70;9.55;;;;;;;;;;5083159;28;20052;-66
2023/03/22 13:00:20;;;;;;;18.58;8.50;;;;;;;;;;5081881;28;20051;-66
2023/03/22 13:02:50;;;;;;;15.45;9.45;;;;;;;;;;5083463;28;20516;-66
2023/03/22 13:05:17;;;;;;;18.30;8.80;;;;;;;;;;5081798;28;20051;-66
2023/03/22 13:07:53;;;;;;;33.92;10.95;;;;;;;;;;5086271;28;20106;-66
2023/03/22 13:10:40;;;;;;;22.83;9.45;;;;;;;;;;5085507;28;20651;-66
2023/03/22 13:13:12;;;;;;;23.30;10.45;;;;;;;;;;5085385;28;20522;-66
2023/03/22 13:15:42;;;;;;;21.13;9.27;;;;;;;;;;5080519;28;20403;-66
2023/03/22 13:18:24;;;;;;;26.17;11.30;;;;;;;;;;5086559;28;20052;-66
2023/03/22 13:21:06;;;;;;;27.60;10.27;;;;;;;;;;5080635;28;20048;-66
2023/03/22 13:23:33;;;;;;;21.98;10.30;;;;;;;;;;5087003;28;20051;-65
2023/03/22 13:26:05;;;;;;;20.58;9.63;;;;;;;;;;5082424;28;20171;-65
2023/03/22 13:28:36;;;;;;;23.70;10.05;;;;;;;;;;5078320;28;20056;-65
2023/03/22 13:31:06;;;;;;;22.38;10.48;;;;;;;;;;5081892;28;20048;-71
2023/03/22 13:33:34;;;;;;;23.25;9.35;;;;;;;;;;5085935;28;20509;-71
2023/03/22 13:36:06;;;;;;;21.75;9.60;;;;;;;;;;5082110;28;20064;-71
2023/03/22 13:38:34;;;;;;;23.77;10.05;;;;;;;;;;5063906;28;20056;-71
2023/03/22 13:41:03;;;;;;;20.77;9.32;;;;;;;;;;5081800;28;20060;-71
2023/03/22 13:43:32;;;;;;;21.98;9.43;;;;;;;;;;5085480;28;20048;-71
2023/03/22 13:46:29;;;;;;;26.42;9.88;;;;;;;;;;5087236;28;20044;-71
2023/03/22 13:49:13;;;;;;;23.27;8.82;;;;;;;;;;5089437;28;20104;-71
2023/03/22 13:51:41;;;;;;;26.52;10.63;;;;;;;;;;5084357;28;20044;-70
2023/03/22 13:54:10;;;;;;;24.15;9.38;;;;;;;;;;5088687;28;20051;-71
2023/03/22 13:56:55;;;;;;;24.13;10.35;;;;;;;;;;5085872;28;20047;-71
2023/03/22 13:59:29;;;;;;;26.52;11.23;;;;;;;;;;5087108;28;20131;-71
2023/03/22 14:02:00;;;;;;;29.50;11.20;;;;;;;;;;5088743;28;20392;-71
2023/03/22 14:04:31;;;;;;;29.10;12.85;;;;;;;;;;5067695;28;20138;-71
2023/03/22 14:06:59;;;;;;;22.75;11.93;;;;;;;;;;5082052;28;20051;-71
2023/03/22 14:09:30;;;;;;;27.45;12.43;;;;;;;;;;5086751;28;20089;-71
2023/03/22 14:12:00;;;;;;;28.92;11.55;;;;;;;;;;5071302;28;20546;-71
2023/03/22 14:14:29;;;;;;;28.00;12.07;;;;;;;;;;5090583;28;20105;-71
2023/03/22 14:17:00;;;;;;;24.23;11.88;;;;;;;;;;5084653;28;20043;-72
2023/03/22 14:19:31;;;;;;;26.58;13.75;;;;;;;;;;5089904;28;20056;-71
2023/03/22 14:22:00;;;;;;;24.73;12.27;;;;;;;;;;5084020;28;20089;-71
2023/03/22 14:24:31;;;;;;;28.10;12.98;;;;;;;;;;5088658;28;20044;-71
2023/03/22 14:26:59;;;;;;;24.52;12.30;;;;;;;;;;5082585;28;20642;-71
2023/03/22 14:29:28;;;;;;;25.65;12.18;;;;;;;;;;5089794;28;20048;-71
2023/03/22 14:31:57;;;;;;;26.60;12.57;;;;;;;;;;5086416;28;20063;-71
2023/03/22 14:34:29;;;;;;;28.25;13.00;;;;;;;;;;5082922;28;20127;-71
2023/03/22 14:36:58;;;;;;;30.05;13.98;;;;;;;;;;5089224;28;20084;-71
2023/03/22 14:39:30;;;;;;;29.45;13.57;;;;;;;;;;5087838;28;20048;-71
2023/03/22 14:41:57;;;;;;;27.70;13.40;;;;;;;;;;5081720;28;20048;-71